Startpagina
METAR-TAF:

METAR-TAF

Vliegvelden :

Cape Town International Airport

Kaapstad, Zuid-Afrika

breedte: 33-59S, lengte: 018-36E, hoogte: 42 m

Actueel weer

Dit bericht is 27 minuten geleden gemaakt, om 05:00 UTC
Wind 20 kt uit het noordnoordwesten
Temperatuur 17°C
Vochtigheid 88%
Druk 1014 hPa
Zicht 10 km of meer
Verspreide wolken op 1400 ft
Gebroken wolken op 4000 ft

METAR: FACT 210500Z 33020KT 9999 SCT014 BKN040 17/15 Q1014 BECMG 4000 -RA BKN010

Tijdstip: 07:27 (05:27 UTC)

Verwachting

Dit bericht is 7 uur en het 27 minuten geleden gemaakt, om 22:00 UTC
Verwachting geldig van 21 om 00 UTC tot 22 om 06 UTC
Wind 13 kt uit het noordnoordwesten
Zicht 10 km of meer
Verspreide wolken op 1000 ft
Gebroken wolken op 2500 ft
Kans 30% :
Tijdelijke
van 21 om 06 UTC tot 21 om 21 UTC
Zicht: 4000 m
Gebroken wolken op 1000 ft
lichte regen

TAF: FACT 202200Z 2100/2206 34013KT 9999 SCT010 BKN025 PROB30 TEMPO 2106/2121 4000 -RA BKN010 TX18/2112Z TN15/2106Z

Waarnemingen en weersverwachtingen van meer dan 4000 vliegvelden (METAR en TAF).

De beschikbare stations zijn de gele en rode punten op de kaart.

Ga met uw muis naar het station om de naam te zien.

Klik dan om waarnemingen en weersverwachtingen te zien.

kaart wijzigen: klik op de groene knoppen met een zwart kruis om in te zoomen, op de groene knop met een streepje om uit te zoomen of op de groene pijlen voor aangrenzende kaarten.


METAR-TAF: